Vitsentzos Kornaros — SXNX — position and weather

sailwx.info

Track history (hours):
 
Tides and Currents Weather Stations Pressure Air Temp Water Temp Dewpoint Dewpoint Depression Visibility Wind Speed Wind Dir Waves Ship Positions

Vitsentzos Kornaros

Last reported at 2014-Sep-19 16:15 UTC. Time now 2014-Sep-21 06:06 UTC.
Position N 37°29' E 023°39'.

Length 128 m; draft 4.5 m.

Type: Passenger vessel. MMSI: 239311000.

Date/timePositionNaut miles runAvg speedWind from/ knotsBaromVisibWave heightAir tempDewpointWater temp
2014-Sep-19 16:15N 37°29' E 023°39'1014.2
2014-Sep-19 15:33N 37°39' E 023°42'1413.8
2014-Sep-19 14:34N 37°52' E 023°37'5 4.9
2014-Sep-19 13:33N 37°57' E 023°38'0 0.0
2014-Sep-19 12:33N 37°57' E 023°38'0 0.0
2014-Sep-19 11:33N 37°57' E 023°38'0 0.0
2014-Sep-19 10:33N 37°57' E 023°38'0 0.0
2014-Sep-19 09:33N 37°57' E 023°38'0 0.0
2014-Sep-19 08:33N 37°57' E 023°38'0 0.0
2014-Sep-19 07:33N 37°57' E 023°38'0 0.0
2014-Sep-19 06:33N 37°57' E 023°38'0 0.0
2014-Sep-19 05:33N 37°57' E 023°38'0 0.0
2014-Sep-19 04:33N 37°57' E 023°38'0 0.1
2014-Sep-19 03:33N 37°57' E 023°38'1110.5
2014-Sep-19 02:33N 37°47' E 023°42'1312.8
2014-Sep-19 01:33N 37°34' E 023°43'  
2014-Sep-15 16:03N 37°34' E 023°40'713.7
2014-Sep-15 15:33N 37°41' E 023°41'1413.6
2014-Sep-15 14:33N 37°54' E 023°37'3 3.3
2014-Sep-15 13:33N 37°57' E 023°38'0 0.0
2014-Sep-15 12:33N 37°57' E 023°38'0 0.0
2014-Sep-15 11:34N 37°57' E 023°38'0 0.0
2014-Sep-15 10:34N 37°57' E 023°38'0 0.0
2014-Sep-15 09:34N 37°57' E 023°38'0 0.0
2014-Sep-15 08:33N 37°57' E 023°38'0 0.0
2014-Sep-15 07:29N 37°57' E 023°38'0 0.0
2014-Sep-15 06:34N 37°57' E 023°38'0 0.0
2014-Sep-15 05:33N 37°57' E 023°38'0 0.0
2014-Sep-15 04:33N 37°57' E 023°38'0 0.0
2014-Sep-15 03:34N 37°57' E 023°38'4 4.5
2014-Sep-15 02:34N 37°52' E 023°39'1413.7
2014-Sep-15 01:33N 37°39' E 023°44'4714.5
2014-Sep-14 22:19N 36°55' E 023°25'39 1.3
2014-Sep-13 16:26N 36°22' E 022°60'7 7.8
2014-Sep-13 15:33N 36°17' E 023°05'1414.0
2014-Sep-13 14:34N 36°05' E 023°15'1413.9
2014-Sep-13 13:33N 35°53' E 023°24'1413.7
2014-Sep-13 12:33N 35°42' E 023°34'18 1.5
2014-Sep-13 01:05N 35°54' E 023°18'28 7.9
2014-Sep-12 21:34N 36°21' E 023°09'4414.0
2014-Sep-12 18:26N 37°02' E 023°28'1313.4
2014-Sep-12 17:27N 37°14' E 023°34'1813.7
2014-Sep-12 16:07N 37°32' E 023°40'813.7
2014-Sep-12 15:32N 37°39' E 023°42'1313.6
2014-Sep-12 14:33N 37°52' E 023°37'5 4.7
2014-Sep-12 13:33N 37°57' E 023°38'0 0.0
2014-Sep-12 12:33N 37°57' E 023°38'0 0.0
2014-Sep-12 11:33N 37°57' E 023°38'0 0.0
2014-Sep-12 10:34N 37°57' E 023°38'0 0.0
2014-Sep-12 09:33N 37°57' E 023°38'0 0.0
2014-Sep-12 08:34N 37°57' E 023°38'0 0.0
2014-Sep-12 07:33N 37°57' E 023°38'0 0.0
2014-Sep-12 06:33N 37°57' E 023°38'0 0.0
2014-Sep-12 05:33N 37°57' E 023°38'0 0.0
2014-Sep-12 04:33N 37°57' E 023°38'3 2.6
2014-Sep-12 03:34N 37°54' E 023°38'1414.1
2014-Sep-12 02:34N 37°42' E 023°45'1513.9
2014-Sep-12 01:28N 37°27' E 023°39'1714.3
2014-Sep-12 00:18N 37°12' E 023°31'1313.8
2014-Sep-11 23:22N 36°60' E 023°26'1113.2
2014-Sep-11 22:34N 36°49' E 023°22'1413.6
2014-Sep-11 21:31N 36°36' E 023°17'21 8.7
2014-Sep-11 19:05N 36°16' E 023°07'  
Track history (hours):
 
Tides and Currents Weather Stations Pressure Air Temp Water Temp Dewpoint Dewpoint Depression Visibility Wind Speed Wind Dir Waves Ship Positions

Vitsentzos Kornaros

Last reported at 2014-Sep-19 16:15 UTC. Time now 2014-Sep-21 06:06 UTC.
Position N 37°29' E 023°39'.

Length 128 m; draft 4.5 m.

Type: Passenger vessel. MMSI: 239311000.

Date/timePositionNaut miles runAvg speedWind from/ knotsBaromVisibWave heightAir tempDewpointWater temp
2014-Sep-19 16:15N 37°29' E 023°39'1014.2
2014-Sep-19 15:33N 37°39' E 023°42'1413.8
2014-Sep-19 14:34N 37°52' E 023°37'5 4.9
2014-Sep-19 13:33N 37°57' E 023°38'0 0.0
2014-Sep-19 12:33N 37°57' E 023°38'0 0.0
2014-Sep-19 11:33N 37°57' E 023°38'0 0.0
2014-Sep-19 10:33N 37°57' E 023°38'0 0.0
2014-Sep-19 09:33N 37°57' E 023°38'0 0.0
2014-Sep-19 08:33N 37°57' E 023°38'0 0.0
2014-Sep-19 07:33N 37°57' E 023°38'0 0.0
2014-Sep-19 06:33N 37°57' E 023°38'0 0.0
2014-Sep-19 05:33N 37°57' E 023°38'0 0.0
2014-Sep-19 04:33N 37°57' E 023°38'0 0.1
2014-Sep-19 03:33N 37°57' E 023°38'1110.5
2014-Sep-19 02:33N 37°47' E 023°42'1312.8
2014-Sep-19 01:33N 37°34' E 023°43'  
2014-Sep-15 16:03N 37°34' E 023°40'713.7
2014-Sep-15 15:33N 37°41' E 023°41'1413.6
2014-Sep-15 14:33N 37°54' E 023°37'3 3.3
2014-Sep-15 13:33N 37°57' E 023°38'0 0.0
2014-Sep-15 12:33N 37°57' E 023°38'0 0.0
2014-Sep-15 11:34N 37°57' E 023°38'0 0.0
2014-Sep-15 10:34N 37°57' E 023°38'0 0.0
2014-Sep-15 09:34N 37°57' E 023°38'0 0.0
2014-Sep-15 08:33N 37°57' E 023°38'0 0.0
2014-Sep-15 07:29N 37°57' E 023°38'0 0.0
2014-Sep-15 06:34N 37°57' E 023°38'0 0.0
2014-Sep-15 05:33N 37°57' E 023°38'0 0.0
2014-Sep-15 04:33N 37°57' E 023°38'0 0.0
2014-Sep-15 03:34N 37°57' E 023°38'4 4.5
2014-Sep-15 02:34N 37°52' E 023°39'1413.7
2014-Sep-15 01:33N 37°39' E 023°44'4714.5
2014-Sep-14 22:19N 36°55' E 023°25'39 1.3
2014-Sep-13 16:26N 36°22' E 022°60'7 7.8
2014-Sep-13 15:33N 36°17' E 023°05'1414.0
2014-Sep-13 14:34N 36°05' E 023°15'1413.9
2014-Sep-13 13:33N 35°53' E 023°24'1413.7
2014-Sep-13 12:33N 35°42' E 023°34'18 1.5
2014-Sep-13 01:05N 35°54' E 023°18'28 7.9
2014-Sep-12 21:34N 36°21' E 023°09'4414.0
2014-Sep-12 18:26N 37°02' E 023°28'1313.4
2014-Sep-12 17:27N 37°14' E 023°34'1813.7
2014-Sep-12 16:07N 37°32' E 023°40'813.7
2014-Sep-12 15:32N 37°39' E 023°42'1313.6
2014-Sep-12 14:33N 37°52' E 023°37'5 4.7
2014-Sep-12 13:33N 37°57' E 023°38'0 0.0
2014-Sep-12 12:33N 37°57' E 023°38'0 0.0
2014-Sep-12 11:33N 37°57' E 023°38'0 0.0
2014-Sep-12 10:34N 37°57' E 023°38'0 0.0
2014-Sep-12 09:33N 37°57' E 023°38'0 0.0
2014-Sep-12 08:34N 37°57' E 023°38'0 0.0
2014-Sep-12 07:33N 37°57' E 023°38'0 0.0
2014-Sep-12 06:33N 37°57' E 023°38'0 0.0
2014-Sep-12 05:33N 37°57' E 023°38'0 0.0
2014-Sep-12 04:33N 37°57' E 023°38'3 2.6
2014-Sep-12 03:34N 37°54' E 023°38'1414.1
2014-Sep-12 02:34N 37°42' E 023°45'1513.9
2014-Sep-12 01:28N 37°27' E 023°39'1714.3
2014-Sep-12 00:18N 37°12' E 023°31'1313.8
2014-Sep-11 23:22N 36°60' E 023°26'1113.2
2014-Sep-11 22:34N 36°49' E 023°22'1413.6
2014-Sep-11 21:31N 36°36' E 023°17'21 8.7
2014-Sep-11 19:05N 36°16' E 023°07'  

Dump ship's entire track history